sensor_id;sensor_type;location;lat;lon;timestamp;temperature;humidity
63771;DHT22;60282;43.862;18.430;2023-01-19T00:00:12;6.80;99.90
63771;DHT22;60282;43.862;18.430;2023-01-19T00:02:39;6.80;99.90
63771;DHT22;60282;43.862;18.430;2023-01-19T00:05:07;6.80;99.90
63771;DHT22;60282;43.862;18.430;2023-01-19T00:07:33;6.70;99.90
63771;DHT22;60282;43.862;18.430;2023-01-19T00:09:59;6.60;99.90
63771;DHT22;60282;43.862;18.430;2023-01-19T00:12:36;6.60;99.90
63771;DHT22;60282;43.862;18.430;2023-01-19T00:15:02;6.50;99.90
63771;DHT22;60282;43.862;18.430;2023-01-19T00:17:31;6.60;99.90
63771;DHT22;60282;43.862;18.430;2023-01-19T00:19:56;6.60;99.90
63771;DHT22;60282;43.862;18.430;2023-01-19T00:22:22;6.50;99.90
63771;DHT22;60282;43.862;18.430;2023-01-19T00:24:47;6.40;99.90
63771;DHT22;60282;43.862;18.430;2023-01-19T00:27:15;6.80;99.90
63771;DHT22;60282;43.862;18.430;2023-01-19T00:29:41;6.50;99.90
63771;DHT22;60282;43.862;18.430;2023-01-19T00:32:10;5.70;99.90
63771;DHT22;60282;43.862;18.430;2023-01-19T00:34:35;4.70;99.90
63771;DHT22;60282;43.862;18.430;2023-01-19T00:37:07;6.70;99.90
63771;DHT22;60282;43.862;18.430;2023-01-19T00:39:33;6.50;99.90
63771;DHT22;60282;43.862;18.430;2023-01-19T00:41:59;6.70;99.90
63771;DHT22;60282;43.862;18.430;2023-01-19T00:44:43;6.70;99.90
63771;DHT22;60282;43.862;18.430;2023-01-19T00:47:09;7.00;99.90
63771;DHT22;60282;43.862;18.430;2023-01-19T00:49:34;6.70;99.90
63771;DHT22;60282;43.862;18.430;2023-01-19T00:52:00;6.80;99.90
63771;DHT22;60282;43.862;18.430;2023-01-19T00:54:28;6.60;99.90
63771;DHT22;60282;43.862;18.430;2023-01-19T00:56:53;6.80;99.90
63771;DHT22;60282;43.862;18.430;2023-01-19T00:59:19;7.10;99.90
63771;DHT22;60282;43.862;18.430;2023-01-19T01:01:45;6.90;99.90
63771;DHT22;60282;43.862;18.430;2023-01-19T01:04:13;7.90;99.90
63771;DHT22;60282;43.862;18.430;2023-01-19T01:06:39;7.30;99.90
63771;DHT22;60282;43.862;18.430;2023-01-19T01:09:04;6.70;99.90
63771;DHT22;60282;43.862;18.430;2023-01-19T01:11:42;5.50;99.90
63771;DHT22;60282;43.862;18.430;2023-01-19T01:14:10;8.80;99.90
63771;DHT22;60282;43.862;18.430;2023-01-19T01:16:39;5.30;99.90
63771;DHT22;60282;43.862;18.430;2023-01-19T01:19:05;7.70;99.90
63771;DHT22;60282;43.862;18.430;2023-01-19T01:21:30;7.80;99.90
63771;DHT22;60282;43.862;18.430;2023-01-19T01:23:58;7.90;99.90
63771;DHT22;60282;43.862;18.430;2023-01-19T01:26:24;8.20;99.90
63771;DHT22;60282;43.862;18.430;2023-01-19T01:28:50;8.00;99.90
63771;DHT22;60282;43.862;18.430;2023-01-19T01:31:15;8.00;99.90
63771;DHT22;60282;43.862;18.430;2023-01-19T01:33:41;8.10;99.90
63771;DHT22;60282;43.862;18.430;2023-01-19T01:36:07;8.10;99.90
63771;DHT22;60282;43.862;18.430;2023-01-19T01:38:32;8.20;99.90
63771;DHT22;60282;43.862;18.430;2023-01-19T01:40:58;8.20;99.90
63771;DHT22;60282;43.862;18.430;2023-01-19T01:43:39;8.20;99.90
63771;DHT22;60282;43.862;18.430;2023-01-19T01:46:05;8.40;99.90
63771;DHT22;60282;43.862;18.430;2023-01-19T01:48:31;8.40;99.90
63771;DHT22;60282;43.862;18.430;2023-01-19T01:51:08;8.40;99.90
63771;DHT22;60282;43.862;18.430;2023-01-19T01:54:13;8.40;99.90
63771;DHT22;60282;43.862;18.430;2023-01-19T01:56:37;8.40;99.90
63771;DHT22;60282;43.862;18.430;2023-01-19T01:59:04;8.30;99.90
63771;DHT22;60282;43.862;18.430;2023-01-19T02:01:30;8.40;99.90
63771;DHT22;60282;43.862;18.430;2023-01-19T02:04:15;8.50;99.90
63771;DHT22;60282;43.862;18.430;2023-01-19T02:06:40;8.50;99.90
63771;DHT22;60282;43.862;18.430;2023-01-19T02:09:25;8.50;99.90
63771;DHT22;60282;43.862;18.430;2023-01-19T02:12:10;8.50;99.90
63771;DHT22;60282;43.862;18.430;2023-01-19T02:14:54;8.50;99.90
63771;DHT22;60282;43.862;18.430;2023-01-19T02:17:20;8.60;99.90
63771;DHT22;60282;43.862;18.430;2023-01-19T02:19:45;8.60;99.90
63771;DHT22;60282;43.862;18.430;2023-01-19T02:22:19;8.70;99.90
63771;DHT22;60282;43.862;18.430;2023-01-19T02:24:48;8.70;99.90
63771;DHT22;60282;43.862;18.430;2023-01-19T02:27:14;8.60;99.90
63771;DHT22;60282;43.862;18.430;2023-01-19T02:29:40;8.60;99.90
63771;DHT22;60282;43.862;18.430;2023-01-19T02:32:06;8.80;99.90
63771;DHT22;60282;43.862;18.430;2023-01-19T02:34:32;8.60;99.90
63771;DHT22;60282;43.862;18.430;2023-01-19T02:36:58;8.60;99.90
63771;DHT22;60282;43.862;18.430;2023-01-19T02:39:46;8.60;99.90
63771;DHT22;60282;43.862;18.430;2023-01-19T02:42:18;8.60;99.90
63771;DHT22;60282;43.862;18.430;2023-01-19T02:44:47;8.50;99.90
63771;DHT22;60282;43.862;18.430;2023-01-19T02:47:13;8.50;99.90
63771;DHT22;60282;43.862;18.430;2023-01-19T02:49:39;8.50;99.90
63771;DHT22;60282;43.862;18.430;2023-01-19T02:52:09;8.50;99.90
63771;DHT22;60282;43.862;18.430;2023-01-19T02:54:45;8.40;99.90
63771;DHT22;60282;43.862;18.430;2023-01-19T03:09:58;8.00;99.90
63771;DHT22;60282;43.862;18.430;2023-01-19T03:14:54;7.90;99.90
63771;DHT22;60282;43.862;18.430;2023-01-19T03:17:22;7.90;99.90
63771;DHT22;60282;43.862;18.430;2023-01-19T03:19:48;7.90;99.90
63771;DHT22;60282;43.862;18.430;2023-01-19T03:22:20;7.90;99.90
63771;DHT22;60282;43.862;18.430;2023-01-19T03:24:47;7.90;99.90
63771;DHT22;60282;43.862;18.430;2023-01-19T03:27:16;8.80;99.90
63771;DHT22;60282;43.862;18.430;2023-01-19T03:29:47;7.80;99.90
63771;DHT22;60282;43.862;18.430;2023-01-19T03:32:15;7.70;99.90
63771;DHT22;60282;43.862;18.430;2023-01-19T03:34:42;7.70;99.90
63771;DHT22;60282;43.862;18.430;2023-01-19T03:37:09;7.70;99.90
63771;DHT22;60282;43.862;18.430;2023-01-19T03:39:35;7.70;99.90
63771;DHT22;60282;43.862;18.430;2023-01-19T03:42:04;7.70;99.90
63771;DHT22;60282;43.862;18.430;2023-01-19T03:44:31;7.70;99.90
63771;DHT22;60282;43.862;18.430;2023-01-19T03:46:57;7.70;99.90
63771;DHT22;60282;43.862;18.430;2023-01-19T03:49:23;7.70;99.90
63771;DHT22;60282;43.862;18.430;2023-01-19T03:51:49;7.70;99.90
63771;DHT22;60282;43.862;18.430;2023-01-19T03:54:15;7.60;99.90
63771;DHT22;60282;43.862;18.430;2023-01-19T03:56:40;7.90;99.90
63771;DHT22;60282;43.862;18.430;2023-01-19T03:59:06;8.10;99.90
63771;DHT22;60282;43.862;18.430;2023-01-19T04:01:32;7.50;99.90
63771;DHT22;60282;43.862;18.430;2023-01-19T04:03:58;7.50;99.90
63771;DHT22;60282;43.862;18.430;2023-01-19T04:06:26;7.50;99.90
63771;DHT22;60282;43.862;18.430;2023-01-19T04:08:54;7.50;99.90
63771;DHT22;60282;43.862;18.430;2023-01-19T04:11:20;7.50;99.90
63771;DHT22;60282;43.862;18.430;2023-01-19T04:13:46;7.30;99.90
63771;DHT22;60282;43.862;18.430;2023-01-19T04:16:11;7.80;99.90
63771;DHT22;60282;43.862;18.430;2023-01-19T04:18:37;7.30;99.90
63771;DHT22;60282;43.862;18.430;2023-01-19T04:21:03;7.30;99.90
63771;DHT22;60282;43.862;18.430;2023-01-19T04:23:30;7.30;99.90
63771;DHT22;60282;43.862;18.430;2023-01-19T04:25:56;7.20;99.90
63771;DHT22;60282;43.862;18.430;2023-01-19T04:28:22;6.30;99.90
63771;DHT22;60282;43.862;18.430;2023-01-19T04:30:50;7.10;99.90
63771;DHT22;60282;43.862;18.430;2023-01-19T04:33:19;7.00;99.90
63771;DHT22;60282;43.862;18.430;2023-01-19T04:35:45;6.90;99.90
63771;DHT22;60282;43.862;18.430;2023-01-19T04:38:11;6.80;99.90
63771;DHT22;60282;43.862;18.430;2023-01-19T04:40:37;6.80;99.90
63771;DHT22;60282;43.862;18.430;2023-01-19T04:43:02;6.70;99.90
63771;DHT22;60282;43.862;18.430;2023-01-19T04:45:28;6.70;99.90
63771;DHT22;60282;43.862;18.430;2023-01-19T04:47:54;6.70;99.90
63771;DHT22;60282;43.862;18.430;2023-01-19T04:50:19;6.70;99.90
63771;DHT22;60282;43.862;18.430;2023-01-19T04:52:45;6.80;99.90
63771;DHT22;60282;43.862;18.430;2023-01-19T04:55:11;6.80;99.90
63771;DHT22;60282;43.862;18.430;2023-01-19T04:57:36;6.80;99.90
63771;DHT22;60282;43.862;18.430;2023-01-19T05:00:03;6.80;99.90
63771;DHT22;60282;43.862;18.430;2023-01-19T05:02:29;6.80;99.90
63771;DHT22;60282;43.862;18.430;2023-01-19T05:04:55;6.90;99.90
63771;DHT22;60282;43.862;18.430;2023-01-19T05:07:21;6.90;99.90
63771;DHT22;60282;43.862;18.430;2023-01-19T05:09:46;7.00;99.90
63771;DHT22;60282;43.862;18.430;2023-01-19T05:12:12;4.70;99.90
63771;DHT22;60282;43.862;18.430;2023-01-19T05:14:39;7.00;99.90
63771;DHT22;60282;43.862;18.430;2023-01-19T05:17:04;7.00;99.90
63771;DHT22;60282;43.862;18.430;2023-01-19T05:19:30;7.00;99.90
63771;DHT22;60282;43.862;18.430;2023-01-19T05:21:55;7.10;99.90
63771;DHT22;60282;43.862;18.430;2023-01-19T05:24:21;7.00;99.90
63771;DHT22;60282;43.862;18.430;2023-01-19T05:26:47;7.00;99.90
63771;DHT22;60282;43.862;18.430;2023-01-19T05:29:15;7.60;99.90
63771;DHT22;60282;43.862;18.430;2023-01-19T05:31:41;6.90;99.90
63771;DHT22;60282;43.862;18.430;2023-01-19T05:34:08;7.00;99.90
63771;DHT22;60282;43.862;18.430;2023-01-19T05:36:35;6.90;99.90
63771;DHT22;60282;43.862;18.430;2023-01-19T05:39:03;10.20;99.90
63771;DHT22;60282;43.862;18.430;2023-01-19T05:41:28;6.70;99.90
63771;DHT22;60282;43.862;18.430;2023-01-19T05:43:54;6.70;99.90
63771;DHT22;60282;43.862;18.430;2023-01-19T05:46:20;6.70;99.90
63771;DHT22;60282;43.862;18.430;2023-01-19T05:48:46;6.70;99.90
63771;DHT22;60282;43.862;18.430;2023-01-19T05:51:12;6.60;99.90
63771;DHT22;60282;43.862;18.430;2023-01-19T05:53:37;6.60;99.90
63771;DHT22;60282;43.862;18.430;2023-01-19T05:56:04;6.50;99.90
63771;DHT22;60282;43.862;18.430;2023-01-19T05:58:30;6.50;99.90
63771;DHT22;60282;43.862;18.430;2023-01-19T06:00:56;6.50;99.90
63771;DHT22;60282;43.862;18.430;2023-01-19T06:03:21;6.50;99.90
63771;DHT22;60282;43.862;18.430;2023-01-19T06:05:47;6.50;99.90
63771;DHT22;60282;43.862;18.430;2023-01-19T06:08:13;6.60;99.90
63771;DHT22;60282;43.862;18.430;2023-01-19T06:10:38;6.70;99.90
63771;DHT22;60282;43.862;18.430;2023-01-19T06:13:04;6.60;99.90
63771;DHT22;60282;43.862;18.430;2023-01-19T06:15:30;6.60;99.90
63771;DHT22;60282;43.862;18.430;2023-01-19T06:17:55;6.60;99.90
63771;DHT22;60282;43.862;18.430;2023-01-19T06:20:21;6.60;99.90
63771;DHT22;60282;43.862;18.430;2023-01-19T06:22:49;6.60;99.90
63771;DHT22;60282;43.862;18.430;2023-01-19T06:25:15;6.60;99.90
63771;DHT22;60282;43.862;18.430;2023-01-19T06:27:52;6.60;99.90
63771;DHT22;60282;43.862;18.430;2023-01-19T06:30:18;6.70;99.90
63771;DHT22;60282;43.862;18.430;2023-01-19T06:32:52;6.70;99.90
63771;DHT22;60282;43.862;18.430;2023-01-19T06:35:17;6.70;99.90
63771;DHT22;60282;43.862;18.430;2023-01-19T06:37:43;6.80;99.90
63771;DHT22;60282;43.862;18.430;2023-01-19T06:40:09;7.50;99.90
63771;DHT22;60282;43.862;18.430;2023-01-19T06:42:36;6.80;99.90
63771;DHT22;60282;43.862;18.430;2023-01-19T06:45:01;6.90;99.90
63771;DHT22;60282;43.862;18.430;2023-01-19T06:47:27;7.00;99.90
63771;DHT22;60282;43.862;18.430;2023-01-19T06:49:53;9.90;99.90
63771;DHT22;60282;43.862;18.430;2023-01-19T06:52:18;7.00;99.90
63771;DHT22;60282;43.862;18.430;2023-01-19T06:54:44;7.00;99.90
63771;DHT22;60282;43.862;18.430;2023-01-19T06:57:10;7.10;99.90
63771;DHT22;60282;43.862;18.430;2023-01-19T06:59:36;7.10;99.90
63771;DHT22;60282;43.862;18.430;2023-01-19T07:02:02;7.10;99.90
63771;DHT22;60282;43.862;18.430;2023-01-19T07:04:28;7.10;99.90
63771;DHT22;60282;43.862;18.430;2023-01-19T07:06:53;7.20;99.90
63771;DHT22;60282;43.862;18.430;2023-01-19T07:09:19;7.20;99.90
63771;DHT22;60282;43.862;18.430;2023-01-19T07:11:45;7.20;99.90
63771;DHT22;60282;43.862;18.430;2023-01-19T07:14:11;4.80;99.90
63771;DHT22;60282;43.862;18.430;2023-01-19T07:16:36;7.10;99.90
63771;DHT22;60282;43.862;18.430;2023-01-19T07:19:02;7.00;99.90
63771;DHT22;60282;43.862;18.430;2023-01-19T07:21:28;7.10;99.90
63771;DHT22;60282;43.862;18.430;2023-01-19T07:23:53;7.00;99.90
63771;DHT22;60282;43.862;18.430;2023-01-19T07:26:19;7.10;99.90
63771;DHT22;60282;43.862;18.430;2023-01-19T07:28:46;7.10;99.90
63771;DHT22;60282;43.862;18.430;2023-01-19T07:31:11;7.20;99.90
63771;DHT22;60282;43.862;18.430;2023-01-19T07:33:37;7.20;99.90
63771;DHT22;60282;43.862;18.430;2023-01-19T07:36:02;7.20;99.90
63771;DHT22;60282;43.862;18.430;2023-01-19T07:38:28;7.20;99.90
63771;DHT22;60282;43.862;18.430;2023-01-19T07:41:03;7.20;99.90
63771;DHT22;60282;43.862;18.430;2023-01-19T07:43:29;7.20;99.90
63771;DHT22;60282;43.862;18.430;2023-01-19T07:45:58;7.20;99.90
63771;DHT22;60282;43.862;18.430;2023-01-19T07:48:25;7.20;99.90
63771;DHT22;60282;43.862;18.430;2023-01-19T07:50:50;7.20;99.90
63771;DHT22;60282;43.862;18.430;2023-01-19T07:53:16;7.30;99.90
63771;DHT22;60282;43.862;18.430;2023-01-19T07:55:42;7.20;99.90
63771;DHT22;60282;43.862;18.430;2023-01-19T07:58:08;7.20;99.90
63771;DHT22;60282;43.862;18.430;2023-01-19T08:00:34;7.20;99.90
63771;DHT22;60282;43.862;18.430;2023-01-19T08:03:01;10.00;99.90
63771;DHT22;60282;43.862;18.430;2023-01-19T08:05:27;7.00;99.90
63771;DHT22;60282;43.862;18.430;2023-01-19T08:07:56;6.90;99.90
63771;DHT22;60282;43.862;18.430;2023-01-19T08:10:25;6.90;99.90
63771;DHT22;60282;43.862;18.430;2023-01-19T08:12:51;6.80;99.90
63771;DHT22;60282;43.862;18.430;2023-01-19T08:15:17;6.90;99.90
63771;DHT22;60282;43.862;18.430;2023-01-19T08:17:43;7.00;99.90
63771;DHT22;60282;43.862;18.430;2023-01-19T08:20:08;7.00;99.90
63771;DHT22;60282;43.862;18.430;2023-01-19T08:22:35;7.10;99.90
63771;DHT22;60282;43.862;18.430;2023-01-19T08:25:01;7.30;99.90
63771;DHT22;60282;43.862;18.430;2023-01-19T08:27:27;7.40;99.90
63771;DHT22;60282;43.862;18.430;2023-01-19T08:29:53;7.40;99.90
63771;DHT22;60282;43.862;18.430;2023-01-19T08:32:19;7.50;99.90
63771;DHT22;60282;43.862;18.430;2023-01-19T08:34:44;7.60;99.90
63771;DHT22;60282;43.862;18.430;2023-01-19T08:37:10;7.60;99.90
63771;DHT22;60282;43.862;18.430;2023-01-19T08:39:35;7.50;99.90
63771;DHT22;60282;43.862;18.430;2023-01-19T08:42:04;7.70;99.90
63771;DHT22;60282;43.862;18.430;2023-01-19T08:44:30;7.90;99.90
63771;DHT22;60282;43.862;18.430;2023-01-19T08:46:55;7.60;99.90
63771;DHT22;60282;43.862;18.430;2023-01-19T08:49:21;7.70;99.90
63771;DHT22;60282;43.862;18.430;2023-01-19T08:51:47;7.80;99.90
63771;DHT22;60282;43.862;18.430;2023-01-19T08:54:13;8.50;99.90
63771;DHT22;60282;43.862;18.430;2023-01-19T08:56:39;7.90;99.90
63771;DHT22;60282;43.862;18.430;2023-01-19T08:59:05;8.00;99.90
63771;DHT22;60282;43.862;18.430;2023-01-19T09:01:31;7.90;99.90
63771;DHT22;60282;43.862;18.430;2023-01-19T09:04:02;7.40;99.90
63771;DHT22;60282;43.862;18.430;2023-01-19T09:06:29;8.20;99.90
63771;DHT22;60282;43.862;18.430;2023-01-19T09:08:55;8.20;99.90
63771;DHT22;60282;43.862;18.430;2023-01-19T09:11:21;8.20;99.90
63771;DHT22;60282;43.862;18.430;2023-01-19T09:13:47;8.20;99.90
63771;DHT22;60282;43.862;18.430;2023-01-19T09:16:12;8.20;99.90
63771;DHT22;60282;43.862;18.430;2023-01-19T09:18:40;8.10;99.90
63771;DHT22;60282;43.862;18.430;2023-01-19T09:21:05;8.00;99.90
63771;DHT22;60282;43.862;18.430;2023-01-19T09:23:32;8.00;99.90
63771;DHT22;60282;43.862;18.430;2023-01-19T09:25:59;8.00;99.90
63771;DHT22;60282;43.862;18.430;2023-01-19T09:28:25;8.10;99.90
63771;DHT22;60282;43.862;18.430;2023-01-19T09:30:51;8.60;99.90
63771;DHT22;60282;43.862;18.430;2023-01-19T09:33:17;8.00;99.90
63771;DHT22;60282;43.862;18.430;2023-01-19T09:35:44;8.00;99.90
63771;DHT22;60282;43.862;18.430;2023-01-19T09:38:10;8.00;99.90
63771;DHT22;60282;43.862;18.430;2023-01-19T09:40:50;7.40;99.90
63771;DHT22;60282;43.862;18.430;2023-01-19T09:45:58;7.80;99.90
63771;DHT22;60282;43.862;18.430;2023-01-19T09:50:53;7.70;99.90
63771;DHT22;60282;43.862;18.430;2023-01-19T09:53:23;7.70;99.90
63771;DHT22;60282;43.862;18.430;2023-01-19T09:55:52;7.60;99.90
63771;DHT22;60282;43.862;18.430;2023-01-19T09:58:18;7.60;99.90
63771;DHT22;60282;43.862;18.430;2023-01-19T10:00:58;7.60;99.90
63771;DHT22;60282;43.862;18.430;2023-01-19T10:03:26;7.50;99.90
63771;DHT22;60282;43.862;18.430;2023-01-19T10:06:00;7.50;99.90
63771;DHT22;60282;43.862;18.430;2023-01-19T10:08:36;7.40;99.90
63771;DHT22;60282;43.862;18.430;2023-01-19T10:11:04;7.30;99.90
63771;DHT22;60282;43.862;18.430;2023-01-19T10:13:47;7.30;99.90
63771;DHT22;60282;43.862;18.430;2023-01-19T10:16:19;7.20;99.90
63771;DHT22;60282;43.862;18.430;2023-01-19T10:18:48;7.10;99.90
63771;DHT22;60282;43.862;18.430;2023-01-19T10:21:37;7.00;99.90
63771;DHT22;60282;43.862;18.430;2023-01-19T10:24:06;7.00;99.90
63771;DHT22;60282;43.862;18.430;2023-01-19T10:26:40;7.00;99.90
63771;DHT22;60282;43.862;18.430;2023-01-19T10:29:12;7.00;99.90
63771;DHT22;60282;43.862;18.430;2023-01-19T10:31:40;7.00;99.90
63771;DHT22;60282;43.862;18.430;2023-01-19T10:34:08;7.00;99.90
63771;DHT22;60282;43.862;18.430;2023-01-19T10:36:36;7.00;99.90
63771;DHT22;60282;43.862;18.430;2023-01-19T10:39:05;7.00;99.90
63771;DHT22;60282;43.862;18.430;2023-01-19T10:41:40;7.00;99.90
63771;DHT22;60282;43.862;18.430;2023-01-19T10:44:06;7.00;99.90
63771;DHT22;60282;43.862;18.430;2023-01-19T10:46:42;7.00;99.90
63771;DHT22;60282;43.862;18.430;2023-01-19T10:51:49;7.00;99.90
63771;DHT22;60282;43.862;18.430;2023-01-19T10:54:14;7.10;99.90
63771;DHT22;60282;43.862;18.430;2023-01-19T10:56:40;7.10;99.90
63771;DHT22;60282;43.862;18.430;2023-01-19T10:59:26;7.10;99.90
63771;DHT22;60282;43.862;18.430;2023-01-19T11:04:47;7.30;99.90
63771;DHT22;60282;43.862;18.430;2023-01-19T11:07:14;7.40;99.90
63771;DHT22;60282;43.862;18.430;2023-01-19T11:09:42;7.40;99.90
63771;DHT22;60282;43.862;18.430;2023-01-19T11:12:20;7.40;99.90
63771;DHT22;60282;43.862;18.430;2023-01-19T11:14:47;7.30;99.90
63771;DHT22;60282;43.862;18.430;2023-01-19T11:17:23;7.40;99.90
63771;DHT22;60282;43.862;18.430;2023-01-19T11:19:54;7.30;99.90
63771;DHT22;60282;43.862;18.430;2023-01-19T11:22:20;7.30;99.90
63771;DHT22;60282;43.862;18.430;2023-01-19T11:24:51;7.40;99.90
63771;DHT22;60282;43.862;18.430;2023-01-19T11:27:18;7.50;99.90
63771;DHT22;60282;43.862;18.430;2023-01-19T11:29:47;7.50;99.90
63771;DHT22;60282;43.862;18.430;2023-01-19T11:32:18;7.00;99.90
63771;DHT22;60282;43.862;18.430;2023-01-19T11:34:44;7.80;99.90
63771;DHT22;60282;43.862;18.430;2023-01-19T11:39:44;7.90;99.90
63771;DHT22;60282;43.862;18.430;2023-01-19T11:42:11;8.00;99.90
63771;DHT22;60282;43.862;18.430;2023-01-19T11:44:46;8.00;99.90
63771;DHT22;60282;43.862;18.430;2023-01-19T11:47:22;9.30;99.90
63771;DHT22;60282;43.862;18.430;2023-01-19T11:50:00;8.20;99.90
63771;DHT22;60282;43.862;18.430;2023-01-19T11:52:36;8.00;99.90
63771;DHT22;60282;43.862;18.430;2023-01-19T11:55:13;8.40;99.90
63771;DHT22;60282;43.862;18.430;2023-01-19T11:57:43;8.50;99.90
63771;DHT22;60282;43.862;18.430;2023-01-19T12:00:17;8.80;99.90
63771;DHT22;60282;43.862;18.430;2023-01-19T12:02:44;9.00;99.90
63771;DHT22;60282;43.862;18.430;2023-01-19T12:05:12;9.10;99.90
63771;DHT22;60282;43.862;18.430;2023-01-19T12:07:39;9.20;99.90
63771;DHT22;60282;43.862;18.430;2023-01-19T12:12:32;9.40;99.90
63771;DHT22;60282;43.862;18.430;2023-01-19T12:15:01;9.60;99.90
63771;DHT22;60282;43.862;18.430;2023-01-19T12:17:33;9.40;99.90
63771;DHT22;60282;43.862;18.430;2023-01-19T12:22:24;9.60;99.90
63771;DHT22;60282;43.862;18.430;2023-01-19T12:25:05;9.60;99.90
63771;DHT22;60282;43.862;18.430;2023-01-19T12:27:38;9.50;99.90
63771;DHT22;60282;43.862;18.430;2023-01-19T12:30:08;9.70;99.90
63771;DHT22;60282;43.862;18.430;2023-01-19T12:32:35;8.60;99.90
63771;DHT22;60282;43.862;18.430;2023-01-19T12:35:01;9.90;99.90
63771;DHT22;60282;43.862;18.430;2023-01-19T12:39:56;10.10;99.90
63771;DHT22;60282;43.862;18.430;2023-01-19T12:42:23;10.10;99.90
63771;DHT22;60282;43.862;18.430;2023-01-19T12:44:50;10.20;99.90
63771;DHT22;60282;43.862;18.430;2023-01-19T12:47:27;10.20;99.90
63771;DHT22;60282;43.862;18.430;2023-01-19T12:49:56;10.20;99.90
63771;DHT22;60282;43.862;18.430;2023-01-19T12:52:38;10.10;99.90
63771;DHT22;60282;43.862;18.430;2023-01-19T12:57:38;10.00;99.90
63771;DHT22;60282;43.862;18.430;2023-01-19T13:00:27;10.10;99.90
63771;DHT22;60282;43.862;18.430;2023-01-19T13:03:02;10.00;99.90
63771;DHT22;60282;43.862;18.430;2023-01-19T13:13:23;9.80;99.90
63771;DHT22;60282;43.862;18.430;2023-01-19T13:15:49;9.80;99.90
63771;DHT22;60282;43.862;18.430;2023-01-19T13:18:19;9.70;99.90
63771;DHT22;60282;43.862;18.430;2023-01-19T13:20:45;9.70;99.90
63771;DHT22;60282;43.862;18.430;2023-01-19T13:23:24;9.70;99.90
63771;DHT22;60282;43.862;18.430;2023-01-19T13:26:12;9.70;99.90
63771;DHT22;60282;43.862;18.430;2023-01-19T13:28:45;9.70;99.90
63771;DHT22;60282;43.862;18.430;2023-01-19T13:31:13;9.70;99.90
63771;DHT22;60282;43.862;18.430;2023-01-19T13:38:50;9.90;99.90
63771;DHT22;60282;43.862;18.430;2023-01-19T13:41:17;10.00;99.90
63771;DHT22;60282;43.862;18.430;2023-01-19T13:43:43;10.00;99.90
63771;DHT22;60282;43.862;18.430;2023-01-19T13:46:10;10.00;99.90
63771;DHT22;60282;43.862;18.430;2023-01-19T13:48:35;10.10;99.90
63771;DHT22;60282;43.862;18.430;2023-01-19T13:51:03;10.10;99.90
63771;DHT22;60282;43.862;18.430;2023-01-19T13:53:30;10.20;99.90
63771;DHT22;60282;43.862;18.430;2023-01-19T13:56:07;10.10;99.90
63771;DHT22;60282;43.862;18.430;2023-01-19T13:58:33;10.10;99.90
63771;DHT22;60282;43.862;18.430;2023-01-19T14:00:58;10.40;99.90
63771;DHT22;60282;43.862;18.430;2023-01-19T14:03:24;10.30;99.90
63771;DHT22;60282;43.862;18.430;2023-01-19T14:05:50;10.40;99.90
63771;DHT22;60282;43.862;18.430;2023-01-19T14:08:16;10.00;99.90
63771;DHT22;60282;43.862;18.430;2023-01-19T14:10:43;10.50;99.90
63771;DHT22;60282;43.862;18.430;2023-01-19T14:13:14;10.50;99.90
63771;DHT22;60282;43.862;18.430;2023-01-19T14:15:40;10.30;99.90
63771;DHT22;60282;43.862;18.430;2023-01-19T14:18:28;10.40;99.90
63771;DHT22;60282;43.862;18.430;2023-01-19T14:28:53;10.00;99.90
63771;DHT22;60282;43.862;18.430;2023-01-19T14:31:22;10.00;99.90
63771;DHT22;60282;43.862;18.430;2023-01-19T14:33:50;9.90;99.90
63771;DHT22;60282;43.862;18.430;2023-01-19T14:39:15;9.70;99.90
63771;DHT22;60282;43.862;18.430;2023-01-19T14:41:45;9.60;99.90
63771;DHT22;60282;43.862;18.430;2023-01-19T14:44:17;9.60;99.90
63771;DHT22;60282;43.862;18.430;2023-01-19T14:46:45;9.50;99.90
63771;DHT22;60282;43.862;18.430;2023-01-19T14:49:30;9.50;99.90
63771;DHT22;60282;43.862;18.430;2023-01-19T14:51:57;9.40;99.90
63771;DHT22;60282;43.862;18.430;2023-01-19T14:54:26;10.60;99.90
63771;DHT22;60282;43.862;18.430;2023-01-19T14:56:53;9.30;99.90
63771;DHT22;60282;43.862;18.430;2023-01-19T14:59:18;9.30;99.90
63771;DHT22;60282;43.862;18.430;2023-01-19T15:01:44;9.20;99.90
63771;DHT22;60282;43.862;18.430;2023-01-19T15:04:10;9.10;99.90
63771;DHT22;60282;43.862;18.430;2023-01-19T15:06:37;11.30;99.90
63771;DHT22;60282;43.862;18.430;2023-01-19T15:09:05;9.00;99.90
63771;DHT22;60282;43.862;18.430;2023-01-19T15:11:34;9.00;99.90
63771;DHT22;60282;43.862;18.430;2023-01-19T15:14:01;9.00;99.90
63771;DHT22;60282;43.862;18.430;2023-01-19T15:16:27;9.00;99.90
63771;DHT22;60282;43.862;18.430;2023-01-19T15:18:54;8.90;99.90
63771;DHT22;60282;43.862;18.430;2023-01-19T15:21:20;8.80;99.90
63771;DHT22;60282;43.862;18.430;2023-01-19T15:23:48;8.90;99.90
63771;DHT22;60282;43.862;18.430;2023-01-19T15:26:21;8.70;99.90
63771;DHT22;60282;43.862;18.430;2023-01-19T15:28:47;8.60;99.90
63771;DHT22;60282;43.862;18.430;2023-01-19T15:31:17;8.60;99.90
63771;DHT22;60282;43.862;18.430;2023-01-19T15:33:43;8.60;99.90
63771;DHT22;60282;43.862;18.430;2023-01-19T15:36:11;8.50;99.90
63771;DHT22;60282;43.862;18.430;2023-01-19T15:38:36;8.40;99.90
63771;DHT22;60282;43.862;18.430;2023-01-19T15:41:02;8.30;99.90
63771;DHT22;60282;43.862;18.430;2023-01-19T15:43:27;8.20;99.90
63771;DHT22;60282;43.862;18.430;2023-01-19T15:45:55;8.10;99.90
63771;DHT22;60282;43.862;18.430;2023-01-19T15:48:23;8.00;99.90
63771;DHT22;60282;43.862;18.430;2023-01-19T15:50:49;7.80;99.90
63771;DHT22;60282;43.862;18.430;2023-01-19T15:53:17;7.50;99.90
63771;DHT22;60282;43.862;18.430;2023-01-19T15:55:47;7.40;99.90
63771;DHT22;60282;43.862;18.430;2023-01-19T15:58:12;7.30;99.90
63771;DHT22;60282;43.862;18.430;2023-01-19T16:00:38;7.30;99.90
63771;DHT22;60282;43.862;18.430;2023-01-19T16:03:04;7.20;99.90
63771;DHT22;60282;43.862;18.430;2023-01-19T16:05:30;7.10;99.90
63771;DHT22;60282;43.862;18.430;2023-01-19T16:07:56;7.00;99.90
63771;DHT22;60282;43.862;18.430;2023-01-19T16:10:21;7.00;99.90
63771;DHT22;60282;43.862;18.430;2023-01-19T16:12:47;7.00;99.90
63771;DHT22;60282;43.862;18.430;2023-01-19T16:15:13;7.00;99.90
63771;DHT22;60282;43.862;18.430;2023-01-19T16:17:39;6.90;99.90
63771;DHT22;60282;43.862;18.430;2023-01-19T16:20:05;6.80;99.90
63771;DHT22;60282;43.862;18.430;2023-01-19T16:22:31;6.70;99.90
63771;DHT22;60282;43.862;18.430;2023-01-19T16:24:57;6.60;99.90
63771;DHT22;60282;43.862;18.430;2023-01-19T16:27:22;6.60;99.90
63771;DHT22;60282;43.862;18.430;2023-01-19T16:29:49;6.50;99.90
63771;DHT22;60282;43.862;18.430;2023-01-19T16:32:15;6.40;99.90
63771;DHT22;60282;43.862;18.430;2023-01-19T16:34:42;6.30;99.90
63771;DHT22;60282;43.862;18.430;2023-01-19T16:37:07;8.00;99.90